Time,TemperatureF,DewpointF,PressureIn,WindDirection,WindDirectionDegrees,WindSpeedMPH,WindSpeedGustMPH,Humidity,HourlyPrecipIn,Conditions,Clouds,dailyrainin,SoftwareType,DateUTC
2013-04-14 00:19:00,45.0,39.0,29.88,SSE,157,1.0,1.0,80,0.00,,,0.01,TxWx,2013-04-14 04:19:00,
2013-04-14 00:25:00,45.0,39.0,29.88,South,180,0.0,0.0,80,0.00,,,0.01,TxWx,2013-04-14 04:25:00,
2013-04-14 00:30:00,45.0,39.0,29.88,East,90,0.0,1.0,80,0.00,,,0.01,TxWx,2013-04-14 04:30:00,
2013-04-14 00:36:00,45.0,39.0,29.88,SSE,157,1.0,2.0,81,0.00,,,0.01,TxWx,2013-04-14 04:36:00,
2013-04-14 00:41:00,45.0,40.0,29.88,SE,135,3.0,3.0,81,0.00,,,0.01,TxWx,2013-04-14 04:41:00,
2013-04-14 00:53:00,45.0,40.0,29.89,NNW,337,3.0,4.0,82,0.00,,,0.01,TxWx,2013-04-14 04:53:00,
2013-04-14 00:58:00,45.0,40.0,29.89,NNE,22,1.0,2.0,83,0.00,,,0.01,TxWx,2013-04-14 04:58:00,
2013-04-14 01:03:00,45.0,40.0,29.88,NE,45,0.0,1.0,82,0.00,,,0.00,TxWx,2013-04-14 05:03:00,
2013-04-14 01:08:00,45.0,40.0,29.89,South,180,2.0,2.0,83,0.00,,,0.00,TxWx,2013-04-14 05:08:00,
2013-04-14 01:13:00,45.0,40.0,29.89,West,270,1.0,1.0,83,0.00,,,0.00,TxWx,2013-04-14 05:13:00,
2013-04-14 01:22:00,45.0,40.0,29.90,WNW,292,1.0,1.0,84,0.00,,,0.00,TxWx,2013-04-14 05:22:00,
2013-04-14 01:27:00,44.0,39.0,29.90,NNE,22,1.0,1.0,84,0.00,,,0.00,TxWx,2013-04-14 05:27:00,
2013-04-14 01:33:00,45.0,40.0,29.90,SE,135,1.0,1.0,84,0.00,,,0.00,TxWx,2013-04-14 05:33:00,
2013-04-14 01:38:00,44.0,39.0,29.91,SSE,157,2.0,3.0,84,0.00,,,0.00,TxWx,2013-04-14 05:38:00,
2013-04-14 01:43:00,45.0,41.0,29.91,South,180,4.0,5.0,85,0.00,,,0.00,TxWx,2013-04-14 05:43:00,
2013-04-14 01:48:00,46.0,42.0,29.91,SW,225,1.0,1.0,85,0.00,,,0.00,TxWx,2013-04-14 05:48:00,
2013-04-14 01:54:00,46.0,42.0,29.90,SSW,202,4.0,5.0,85,0.00,,,0.00,TxWx,2013-04-14 05:54:00,
2013-04-14 01:59:00,46.0,42.0,29.90,SSW,202,5.0,5.0,85,0.00,,,0.00,TxWx,2013-04-14 05:59:00,
2013-04-14 02:04:00,46.0,41.0,29.90,SE,135,3.0,3.0,84,0.00,,,0.00,TxWx,2013-04-14 06:04:00,
2013-04-14 02:10:00,46.0,41.0,29.90,SSE,157,3.0,3.0,84,0.00,,,0.00,TxWx,2013-04-14 06:10:00,
2013-04-14 02:15:00,46.0,41.0,29.91,SSE,157,3.0,5.0,84,0.00,,,0.00,TxWx,2013-04-14 06:15:00,
2013-04-14 02:21:00,46.0,41.0,29.91,South,180,3.0,4.0,84,0.00,,,0.00,TxWx,2013-04-14 06:21:00,
2013-04-14 02:26:00,46.0,41.0,29.91,South,180,5.0,6.0,83,0.00,,,0.00,TxWx,2013-04-14 06:26:00,
2013-04-14 02:32:00,46.0,41.0,29.91,SE,135,2.0,3.0,83,0.00,,,0.00,TxWx,2013-04-14 06:32:00,
2013-04-14 02:37:00,45.0,40.0,29.90,SSW,202,5.0,6.0,82,0.00,,,0.00,TxWx,2013-04-14 06:37:00,
2013-04-14 02:42:00,45.0,40.0,29.91,SSE,157,3.0,4.0,82,0.00,,,0.00,TxWx,2013-04-14 06:42:00,
2013-04-14 02:47:00,45.0,40.0,29.90,SSW,202,5.0,5.0,82,0.00,,,0.00,TxWx,2013-04-14 06:47:00,
2013-04-14 02:53:00,45.0,40.0,29.91,South,180,2.0,2.0,82,0.00,,,0.00,TxWx,2013-04-14 06:53:00,
2013-04-14 02:58:00,45.0,40.0,29.90,SSW,202,5.0,6.0,82,0.00,,,0.00,TxWx,2013-04-14 06:58:00,
2013-04-14 03:03:00,45.0,40.0,29.90,South,180,5.0,6.0,82,0.00,,,0.00,TxWx,2013-04-14 07:03:00,
2013-04-14 03:08:00,45.0,40.0,29.90,SSW,202,4.0,5.0,82,0.00,,,0.00,TxWx,2013-04-14 07:08:00,
2013-04-14 03:13:00,45.0,40.0,29.90,SW,225,2.0,3.0,82,0.00,,,0.00,TxWx,2013-04-14 07:13:00,
2013-04-14 03:18:00,45.0,40.0,29.89,South,180,4.0,4.0,82,0.00,,,0.00,TxWx,2013-04-14 07:18:00,
2013-04-14 03:24:00,44.0,39.0,29.90,SSE,157,3.0,4.0,83,0.00,,,0.00,TxWx,2013-04-14 07:24:00,
2013-04-14 03:29:00,44.0,39.0,29.90,SSE,157,2.0,3.0,83,0.00,,,0.00,TxWx,2013-04-14 07:29:00,
2013-04-14 03:34:00,44.0,39.0,29.90,SSE,157,1.0,1.0,82,0.00,,,0.00,TxWx,2013-04-14 07:34:00,
2013-04-14 03:39:00,44.0,39.0,29.91,NNE,22,0.0,1.0,82,0.00,,,0.00,TxWx,2013-04-14 07:39:00,
2013-04-14 03:45:00,44.0,39.0,29.91,NNW,337,1.0,1.0,82,0.00,,,0.00,TxWx,2013-04-14 07:45:00,
2013-04-14 03:50:00,43.0,38.0,29.90,South,180,1.0,2.0,82,0.00,,,0.00,TxWx,2013-04-14 07:50:00,
2013-04-14 03:55:00,43.0,38.0,29.90,WSW,247,1.0,2.0,82,0.00,,,0.00,TxWx,2013-04-14 07:55:00,
2013-04-14 04:00:00,43.0,38.0,29.90,SSW,202,1.0,1.0,83,0.00,,,0.00,TxWx,2013-04-14 08:00:00,
2013-04-14 04:05:00,43.0,38.0,29.90,South,180,1.0,2.0,83,0.00,,,0.00,TxWx,2013-04-14 08:05:00,
2013-04-14 04:11:00,42.0,37.0,29.90,SE,135,1.0,1.0,83,0.00,,,0.00,TxWx,2013-04-14 08:11:00,
2013-04-14 04:16:00,43.0,37.0,29.91,SE,135,1.0,1.0,84,0.00,,,0.00,TxWx,2013-04-14 08:16:00,
2013-04-14 04:21:00,42.0,37.0,29.91,North,0,2.0,2.0,84,0.00,,,0.00,TxWx,2013-04-14 08:21:00,
2013-04-14 04:26:00,42.0,37.0,29.91,WNW,292,1.0,1.0,84,0.00,,,0.00,TxWx,2013-04-14 08:26:00,
2013-04-14 04:32:00,42.0,38.0,29.92,WNW,292,0.0,0.0,84,0.00,,,0.00,TxWx,2013-04-14 08:32:00,
2013-04-14 04:37:00,42.0,38.0,29.92,South,180,1.0,1.0,84,0.00,,,0.00,TxWx,2013-04-14 08:37:00,
2013-04-14 04:42:00,42.0,38.0,29.91,South,180,2.0,3.0,84,0.00,,,0.00,TxWx,2013-04-14 08:42:00,
2013-04-14 04:48:00,42.0,38.0,29.91,East,90,0.0,1.0,85,0.00,,,0.00,TxWx,2013-04-14 08:48:00,
2013-04-14 04:53:00,42.0,38.0,29.92,South,180,1.0,1.0,85,0.00,,,0.00,TxWx,2013-04-14 08:53:00,
2013-04-14 04:58:00,42.0,38.0,29.91,SW,225,1.0,2.0,85,0.00,,,0.00,TxWx,2013-04-14 08:58:00,
2013-04-14 05:03:00,43.0,39.0,29.90,WSW,247,1.0,1.0,85,0.00,,,0.00,TxWx,2013-04-14 09:03:00,
2013-04-14 05:09:00,43.0,39.0,29.91,East,90,1.0,1.0,85,0.00,,,0.00,TxWx,2013-04-14 09:09:00,
2013-04-14 05:14:00,42.0,38.0,29.91,NE,45,2.0,3.0,85,0.00,,,0.00,TxWx,2013-04-14 09:14:00,
2013-04-14 05:19:00,42.0,38.0,29.91,NNE,22,1.0,1.0,85,0.00,,,0.00,TxWx,2013-04-14 09:19:00,
2013-04-14 05:24:00,42.0,38.0,29.92,NNE,22,1.0,1.0,85,0.00,,,0.00,TxWx,2013-04-14 09:24:00,
2013-04-14 05:30:00,42.0,38.0,29.92,ENE,67,1.0,1.0,85,0.00,,,0.00,TxWx,2013-04-14 09:30:00,
2013-04-14 05:35:00,42.0,38.0,29.92,NNE,22,1.0,1.0,85,0.00,,,0.00,TxWx,2013-04-14 09:35:00,
2013-04-14 05:40:00,42.0,38.0,29.92,NNW,337,1.0,2.0,86,0.00,,,0.00,TxWx,2013-04-14 09:40:00,
2013-04-14 05:45:00,42.0,38.0,29.92,North,0,3.0,3.0,86,0.00,,,0.00,TxWx,2013-04-14 09:45:00,
2013-04-14 05:51:00,42.0,38.0,29.92,NNW,337,2.0,2.0,86,0.00,,,0.00,TxWx,2013-04-14 09:51:00,
2013-04-14 05:57:00,43.0,39.0,29.92,NW,315,2.0,3.0,86,0.00,,,0.00,TxWx,2013-04-14 09:57:00,
2013-04-14 06:02:00,43.0,39.0,29.93,North,0,3.0,3.0,86,0.00,,,0.00,TxWx,2013-04-14 10:02:00,
2013-04-14 06:07:00,43.0,39.0,29.93,NW,315,1.0,1.0,86,0.00,,,0.00,TxWx,2013-04-14 10:07:00,
2013-04-14 06:12:00,43.0,39.0,29.93,NNE,22,1.0,1.0,86,0.00,,,0.00,TxWx,2013-04-14 10:12:00,
2013-04-14 06:17:00,43.0,39.0,29.93,WNW,292,0.0,1.0,86,0.00,,,0.00,TxWx,2013-04-14 10:17:00,
2013-04-14 06:22:00,43.0,39.0,29.93,NNE,22,1.0,1.0,86,0.00,,,0.00,TxWx,2013-04-14 10:22:00,
2013-04-14 06:28:00,43.0,39.0,29.94,North,0,1.0,1.0,86,0.00,,,0.00,TxWx,2013-04-14 10:28:00,
2013-04-14 06:33:00,43.0,39.0,29.94,NNW,337,2.0,2.0,86,0.00,,,0.00,TxWx,2013-04-14 10:33:00,
2013-04-14 06:38:00,43.0,39.0,29.94,WNW,292,1.0,1.0,86,0.00,,,0.00,TxWx,2013-04-14 10:38:00,
2013-04-14 06:44:00,43.0,39.0,29.94,SSE,157,1.0,1.0,86,0.00,,,0.00,TxWx,2013-04-14 10:44:00,
2013-04-14 06:49:00,43.0,39.0,29.94,WSW,247,1.0,1.0,87,0.00,,,0.00,TxWx,2013-04-14 10:49:00,
2013-04-14 06:54:00,42.0,39.0,29.95,ESE,112,1.0,2.0,87,0.00,,,0.00,TxWx,2013-04-14 10:54:00,
2013-04-14 06:59:00,43.0,39.0,29.95,South,180,1.0,1.0,87,0.00,,,0.00,TxWx,2013-04-14 10:59:00,
2013-04-14 07:04:00,43.0,39.0,29.95,SE,135,1.0,1.0,87,0.00,,,0.00,TxWx,2013-04-14 11:04:00,
2013-04-14 07:09:00,43.0,39.0,29.96,NE,45,1.0,1.0,87,0.00,,,0.00,TxWx,2013-04-14 11:09:00,
2013-04-14 07:14:00,43.0,39.0,29.96,WNW,292,2.0,3.0,87,0.00,,,0.00,TxWx,2013-04-14 11:14:00,
2013-04-14 07:20:00,42.0,38.0,29.96,ENE,67,1.0,2.0,87,0.00,,,0.00,TxWx,2013-04-14 11:20:00,
2013-04-14 07:25:00,42.0,38.0,29.96,West,270,1.0,1.0,87,0.00,,,0.00,TxWx,2013-04-14 11:25:00,
2013-04-14 07:30:00,42.0,39.0,29.96,NE,45,2.0,3.0,88,0.00,,,0.00,TxWx,2013-04-14 11:30:00,
2013-04-14 07:35:00,43.0,40.0,29.96,NNW,337,1.0,2.0,88,0.00,,,0.00,TxWx,2013-04-14 11:35:00,
2013-04-14 07:40:00,43.0,40.0,29.97,NNE,22,1.0,1.0,88,0.00,,,0.00,TxWx,2013-04-14 11:40:00,
2013-04-14 07:46:00,43.0,40.0,29.97,NNW,337,2.0,2.0,88,0.00,,,0.00,TxWx,2013-04-14 11:46:00,
2013-04-14 07:51:00,44.0,41.0,29.97,North,0,2.0,2.0,88,0.00,,,0.00,TxWx,2013-04-14 11:51:00,
2013-04-14 07:56:00,44.0,41.0,29.97,NNW,337,3.0,4.0,88,0.00,,,0.00,TxWx,2013-04-14 11:56:00,
2013-04-14 08:02:00,45.0,42.0,29.97,NNE,22,2.0,3.0,89,0.00,,,0.00,TxWx,2013-04-14 12:02:00,
2013-04-14 08:07:00,45.0,42.0,29.97,NNW,337,3.0,3.0,88,0.00,,,0.00,TxWx,2013-04-14 12:07:00,
2013-04-14 08:12:00,46.0,43.0,29.97,NNE,22,2.0,3.0,89,0.00,,,0.00,TxWx,2013-04-14 12:12:00,
2013-04-14 08:17:00,47.0,44.0,29.97,NNE,22,6.0,6.0,89,0.00,,,0.00,TxWx,2013-04-14 12:17:00,
2013-04-14 08:22:00,47.0,44.0,29.97,SE,135,6.0,6.0,89,0.00,,,0.00,TxWx,2013-04-14 12:22:00,
2013-04-14 08:28:00,47.0,43.0,29.98,SSE,157,4.0,5.0,88,0.00,,,0.00,TxWx,2013-04-14 12:28:00,
2013-04-14 08:33:00,47.0,42.0,29.98,ESE,112,2.0,2.0,84,0.00,,,0.00,TxWx,2013-04-14 12:33:00,
2013-04-14 08:38:00,48.0,42.0,29.98,NE,45,7.0,8.0,80,0.00,,,0.00,TxWx,2013-04-14 12:38:00,
2013-04-14 08:43:00,49.0,42.0,29.98,SE,135,3.0,3.0,76,0.00,,,0.00,TxWx,2013-04-14 12:43:00,
2013-04-14 08:49:00,49.0,41.0,29.98,East,90,3.0,4.0,73,0.00,,,0.00,TxWx,2013-04-14 12:49:00,
2013-04-14 08:54:00,49.0,39.0,29.98,ENE,67,5.0,8.0,67,0.00,,,0.00,TxWx,2013-04-14 12:54:00,
2013-04-14 09:00:00,49.0,37.0,29.98,East,90,3.0,5.0,63,0.00,,,0.00,TxWx,2013-04-14 13:00:00,
2013-04-14 09:05:00,50.0,36.0,29.98,East,90,3.0,5.0,59,0.00,,,0.00,TxWx,2013-04-14 13:05:00,
2013-04-14 09:10:00,50.0,35.0,29.98,SE,135,4.0,6.0,57,0.00,,,0.00,TxWx,2013-04-14 13:10:00,
2013-04-14 09:15:00,49.0,34.0,29.98,ENE,67,9.0,10.0,56,0.00,,,0.00,TxWx,2013-04-14 13:15:00,
2013-04-14 09:22:00,49.0,34.0,29.98,ESE,112,8.0,10.0,55,0.00,,,0.00,TxWx,2013-04-14 13:22:00,
2013-04-14 09:27:00,49.0,33.0,29.98,East,90,3.0,5.0,54,0.00,,,0.00,TxWx,2013-04-14 13:27:00,
2013-04-14 09:32:00,49.0,33.0,29.99,ESE,112,9.0,11.0,54,0.00,,,0.00,TxWx,2013-04-14 13:32:00,
2013-04-14 09:37:00,49.0,33.0,29.99,ESE,112,10.0,10.0,54,0.00,,,0.00,TxWx,2013-04-14 13:37:00,
2013-04-14 09:42:00,49.0,33.0,29.99,East,90,8.0,9.0,55,0.00,,,0.00,TxWx,2013-04-14 13:42:00,
2013-04-14 09:47:00,49.0,34.0,29.99,ESE,112,6.0,6.0,56,0.00,,,0.00,TxWx,2013-04-14 13:47:00,
2013-04-14 09:53:00,48.0,34.0,30.00,SSW,202,5.0,8.0,59,0.00,,,0.00,TxWx,2013-04-14 13:53:00,
2013-04-14 09:58:00,48.0,35.0,30.00,SE,135,7.0,7.0,60,0.00,,,0.00,TxWx,2013-04-14 13:58:00,
2013-04-14 10:03:00,48.0,35.0,30.00,ESE,112,13.0,13.0,60,0.00,,,0.00,TxWx,2013-04-14 14:03:00,
2013-04-14 10:08:00,48.0,35.0,30.00,SE,135,7.0,11.0,60,0.00,,,0.00,TxWx,2013-04-14 14:08:00,
2013-04-14 10:14:00,48.0,34.0,30.01,SE,135,6.0,7.0,59,0.00,,,0.00,TxWx,2013-04-14 14:14:00,
2013-04-14 10:19:00,48.0,34.0,30.01,SE,135,7.0,11.0,59,0.00,,,0.00,TxWx,2013-04-14 14:19:00,
2013-04-14 10:24:00,48.0,33.0,30.01,SE,135,8.0,9.0,57,0.00,,,0.00,TxWx,2013-04-14 14:24:00,
2013-04-14 10:29:00,48.0,33.0,30.01,East,90,6.0,6.0,56,0.00,,,0.00,TxWx,2013-04-14 14:29:00,
2013-04-14 10:35:00,48.0,33.0,30.01,East,90,10.0,10.0,56,0.00,,,0.00,TxWx,2013-04-14 14:35:00,
2013-04-14 10:40:00,49.0,34.0,30.00,SE,135,13.0,13.0,56,0.00,,,0.00,TxWx,2013-04-14 14:40:00,
2013-04-14 10:45:00,49.0,34.0,30.00,East,90,10.0,11.0,56,0.00,,,0.00,TxWx,2013-04-14 14:45:00,
2013-04-14 10:50:00,48.0,33.0,30.01,SE,135,10.0,13.0,56,0.00,,,0.00,TxWx,2013-04-14 14:50:00,
2013-04-14 10:55:00,48.0,33.0,30.01,East,90,8.0,11.0,57,0.00,,,0.00,TxWx,2013-04-14 14:55:00,
2013-04-14 11:01:00,48.0,33.0,30.01,East,90,5.0,7.0,57,0.00,,,0.00,TxWx,2013-04-14 15:01:00,
2013-04-14 11:06:00,48.0,33.0,30.01,ESE,112,8.0,8.0,57,0.00,,,0.00,TxWx,2013-04-14 15:06:00,
2013-04-14 11:11:00,48.0,33.0,30.01,SE,135,5.0,6.0,56,0.00,,,0.00,TxWx,2013-04-14 15:11:00,
2013-04-14 11:17:00,50.0,35.0,30.01,ENE,67,6.0,6.0,56,0.00,,,0.00,TxWx,2013-04-14 15:17:00,
2013-04-14 11:22:00,50.0,33.0,30.01,East,90,9.0,10.0,52,0.00,,,0.00,TxWx,2013-04-14 15:22:00,
2013-04-14 11:27:00,50.0,33.0,30.01,NE,45,5.0,5.0,51,0.00,,,0.00,TxWx,2013-04-14 15:27:00,
2013-04-14 11:33:00,50.0,32.0,30.02,ENE,67,4.0,5.0,51,0.00,,,0.00,TxWx,2013-04-14 15:33:00,
2013-04-14 11:38:00,50.0,33.0,30.02,ESE,112,6.0,6.0,52,0.00,,,0.00,TxWx,2013-04-14 15:38:00,
2013-04-14 11:43:00,49.0,33.0,30.02,ESE,112,6.0,8.0,53,0.00,,,0.00,TxWx,2013-04-14 15:43:00,
2013-04-14 11:48:00,49.0,33.0,30.02,SE,135,10.0,10.0,53,0.00,,,0.00,TxWx,2013-04-14 15:48:00,
2013-04-14 11:54:00,49.0,33.0,30.02,ESE,112,3.0,5.0,54,0.00,,,0.00,TxWx,2013-04-14 15:54:00,
2013-04-14 11:59:00,49.0,31.0,30.01,SE,135,13.0,13.0,52,0.00,,,0.00,TxWx,2013-04-14 15:59:00,
2013-04-14 12:04:00,49.0,31.0,30.02,NE,45,15.0,15.0,52,0.00,,,0.00,TxWx,2013-04-14 16:04:00,
2013-04-14 12:09:00,49.0,30.0,30.02,ENE,67,8.0,8.0,49,0.00,,,0.00,TxWx,2013-04-14 16:09:00,
2013-04-14 12:14:00,49.0,29.0,30.02,South,180,5.0,8.0,48,0.00,,,0.00,TxWx,2013-04-14 16:14:00,
2013-04-14 12:19:00,49.0,29.0,30.02,ESE,112,6.0,8.0,48,0.00,,,0.00,TxWx,2013-04-14 16:19:00,
2013-04-14 12:25:00,49.0,29.0,30.02,South,180,3.0,5.0,48,0.00,,,0.00,TxWx,2013-04-14 16:25:00,
2013-04-14 12:30:00,50.0,30.0,30.03,ENE,67,8.0,8.0,47,0.00,,,0.00,TxWx,2013-04-14 16:30:00,
2013-04-14 12:35:00,50.0,30.0,30.03,SE,135,2.0,3.0,48,0.00,,,0.00,TxWx,2013-04-14 16:35:00,
2013-04-14 12:40:00,51.0,30.0,30.03,ENE,67,6.0,8.0,47,0.00,,,0.00,TxWx,2013-04-14 16:40:00,
2013-04-14 12:46:00,50.0,29.0,30.03,East,90,8.0,8.0,46,0.00,,,0.00,TxWx,2013-04-14 16:46:00,
2013-04-14 12:51:00,50.0,30.0,30.03,SE,135,7.0,7.0,47,0.00,,,0.00,TxWx,2013-04-14 16:51:00,
2013-04-14 12:57:00,50.0,30.0,30.03,ESE,112,5.0,5.0,49,0.00,,,0.00,TxWx,2013-04-14 16:57:00,
2013-04-14 13:02:00,50.0,30.0,30.03,North,0,4.0,8.0,48,0.00,,,0.00,TxWx,2013-04-14 17:02:00,
2013-04-14 13:07:00,50.0,30.0,30.03,East,90,7.0,7.0,48,0.00,,,0.00,TxWx,2013-04-14 17:07:00,
2013-04-14 13:13:00,50.0,30.0,30.03,East,90,5.0,6.0,48,0.00,,,0.00,TxWx,2013-04-14 17:13:00,
2013-04-14 13:18:00,50.0,30.0,30.04,East,90,8.0,8.0,49,0.00,,,0.00,TxWx,2013-04-14 17:18:00,
2013-04-14 13:23:00,50.0,30.0,30.04,ENE,67,4.0,6.0,48,0.00,,,0.00,TxWx,2013-04-14 17:23:00,
2013-04-14 13:28:00,50.0,29.0,30.04,SE,135,11.0,11.0,47,0.00,,,0.00,TxWx,2013-04-14 17:28:00,
2013-04-14 13:33:00,50.0,29.0,30.04,East,90,5.0,7.0,47,0.00,,,0.00,TxWx,2013-04-14 17:33:00,
2013-04-14 13:39:00,50.0,30.0,30.04,SE,135,3.0,5.0,47,0.00,,,0.00,TxWx,2013-04-14 17:39:00,
2013-04-14 13:44:00,50.0,29.0,30.04,ENE,67,8.0,10.0,47,0.00,,,0.00,TxWx,2013-04-14 17:44:00,
2013-04-14 13:49:00,50.0,29.0,30.04,East,90,8.0,8.0,47,0.00,,,0.00,TxWx,2013-04-14 17:49:00,
2013-04-14 13:54:00,50.0,29.0,30.04,East,90,10.0,11.0,46,0.00,,,0.00,TxWx,2013-04-14 17:54:00,
2013-04-14 13:59:00,51.0,29.0,30.04,NE,45,11.0,13.0,45,0.00,,,0.00,TxWx,2013-04-14 17:59:00,
2013-04-14 14:00:00,39.0,28.0,30.18,North,0,1.0,1.0,68,0.00,,,0.00,TxWx,2013-04-14 18:00:00,
2013-04-14 14:01:00,39.0,28.0,30.18,NNE,22,1.0,2.0,68,0.00,,,0.00,TxWx,2013-04-14 18:01:00,
2013-04-14 14:02:00,39.0,28.0,30.18,NNE,22,2.0,2.0,68,0.00,,,0.00,TxWx,2013-04-14 18:02:00,
2013-04-14 14:03:00,38.0,27.0,30.18,NNE,22,2.0,3.0,68,0.00,,,0.00,TxWx,2013-04-14 18:03:00,
2013-04-14 14:04:00,38.0,27.0,30.18,North,0,1.0,2.0,68,0.00,,,0.00,TxWx,2013-04-14 18:04:00,
2013-04-14 14:05:00,51.0,30.0,30.04,ENE,67,5.0,5.0,46,0.00,,,0.00,TxWx,2013-04-14 18:05:00,
2013-04-14 14:06:00,38.0,27.0,30.18,NNE,22,2.0,2.0,68,0.00,,,0.00,TxWx,2013-04-14 18:06:00,
2013-04-14 14:07:00,38.0,27.0,30.18,NNW,337,1.0,1.0,68,0.00,,,0.00,TxWx,2013-04-14 18:07:00,
2013-04-14 14:08:00,38.0,27.0,30.18,North,0,1.0,2.0,68,0.00,,,0.00,TxWx,2013-04-14 18:08:00,
2013-04-14 14:09:00,38.0,27.0,30.18,North,0,1.0,2.0,68,0.00,,,0.00,TxWx,2013-04-14 18:09:00,
2013-04-14 14:10:00,51.0,30.0,30.04,ENE,67,3.0,3.0,46,0.00,,,0.00,TxWx,2013-04-14 18:10:00,
2013-04-14 14:11:00,38.0,27.0,30.18,NNW,337,3.0,3.0,68,0.00,,,0.00,TxWx,2013-04-14 18:11:00,
2013-04-14 14:12:00,38.0,28.0,30.18,NW,315,3.0,3.0,69,0.00,,,0.00,TxWx,2013-04-14 18:12:00,
2013-04-14 14:13:00,38.0,28.0,30.18,NNW,337,2.0,3.0,69,0.00,,,0.00,TxWx,2013-04-14 18:13:00,
2013-04-14 14:14:00,38.0,28.0,30.18,North,0,2.0,2.0,69,0.00,,,0.00,TxWx,2013-04-14 18:14:00,
2013-04-14 14:15:00,51.0,30.0,30.04,East,90,6.0,7.0,46,0.00,,,0.00,TxWx,2013-04-14 18:15:00,
2013-04-14 14:16:00,38.0,28.0,30.18,North,0,1.0,2.0,69,0.00,,,0.00,TxWx,2013-04-14 18:16:00,
2013-04-14 14:17:00,38.0,28.0,30.18,North,0,1.0,1.0,69,0.00,,,0.00,TxWx,2013-04-14 18:17:00,
2013-04-14 14:18:00,38.0,28.0,30.19,NNE,22,0.0,0.0,69,0.00,,,0.00,TxWx,2013-04-14 18:18:00,
2013-04-14 14:19:00,38.0,28.0,30.19,NNE,22,0.0,1.0,69,0.00,,,0.00,TxWx,2013-04-14 18:19:00,
2013-04-14 14:20:00,38.0,28.0,30.18,NNW,337,0.0,1.0,69,0.00,,,0.00,TxWx,2013-04-14 18:20:00,
2013-04-14 14:21:00,51.0,30.0,30.04,ENE,67,3.0,4.0,47,0.00,,,0.00,TxWx,2013-04-14 18:21:00,
2013-04-14 14:22:00,38.0,28.0,30.19,West,270,1.0,1.0,69,0.00,,,0.00,TxWx,2013-04-14 18:22:00,
2013-04-14 14:23:00,38.0,28.0,30.19,South,180,0.0,1.0,69,0.00,,,0.00,TxWx,2013-04-14 18:23:00,
2013-04-14 14:24:00,38.0,28.0,30.19,SW,225,1.0,1.0,69,0.00,,,0.00,TxWx,2013-04-14 18:24:00,
2013-04-14 14:25:00,38.0,28.0,30.19,WSW,247,1.0,1.0,69,0.00,,,0.00,TxWx,2013-04-14 18:25:00,
2013-04-14 14:26:00,50.0,28.0,30.04,ENE,67,7.0,8.0,45,0.00,,,0.00,TxWx,2013-04-14 18:26:00,
2013-04-14 14:27:00,38.0,28.0,30.19,South,180,1.0,1.0,69,0.00,,,0.00,TxWx,2013-04-14 18:27:00,
2013-04-14 14:30:00,38.0,28.0,30.19,South,180,1.0,1.0,69,0.00,,,0.00,TxWx,2013-04-14 18:30:00,
2013-04-14 14:31:00,38.0,28.0,30.19,SSW,202,1.0,1.0,69,0.00,,,0.00,TxWx,2013-04-14 18:31:00,
2013-04-14 14:32:00,50.0,28.0,30.05,SSE,157,8.0,11.0,45,0.00,,,0.00,TxWx,2013-04-14 18:32:00,
2013-04-14 14:34:00,38.0,28.0,30.19,South,180,1.0,1.0,70,0.00,,,0.00,TxWx,2013-04-14 18:34:00,
2013-04-14 14:35:00,38.0,28.0,30.19,South,180,1.0,1.0,70,0.00,,,0.00,TxWx,2013-04-14 18:35:00,
2013-04-14 14:36:00,38.0,28.0,30.19,SSW,202,1.0,1.0,70,0.00,,,0.00,TxWx,2013-04-14 18:36:00,
2013-04-14 14:37:00,50.0,28.0,30.05,East,90,4.0,5.0,45,0.00,,,0.00,TxWx,2013-04-14 18:37:00,
2013-04-14 14:38:00,37.0,27.0,30.19,South,180,1.0,1.0,70,0.00,,,0.00,TxWx,2013-04-14 18:38:00,
2013-04-14 14:39:00,37.0,27.0,30.19,South,180,1.0,1.0,70,0.00,,,0.00,TxWx,2013-04-14 18:39:00,
2013-04-14 14:41:00,37.0,27.0,30.18,SSE,157,1.0,1.0,71,0.00,,,0.00,TxWx,2013-04-14 18:41:00,
2013-04-14 14:42:00,50.0,28.0,30.05,ESE,112,8.0,9.0,45,0.00,,,0.00,TxWx,2013-04-14 18:42:00,
2013-04-14 14:43:00,37.0,27.0,30.19,SE,135,1.0,1.0,71,0.00,,,0.00,TxWx,2013-04-14 18:43:00,
2013-04-14 14:44:00,37.0,27.0,30.19,SE,135,1.0,1.0,71,0.00,,,0.00,TxWx,2013-04-14 18:44:00,
2013-04-14 14:46:00,37.0,27.0,30.19,NNE,22,0.0,1.0,71,0.00,,,0.00,TxWx,2013-04-14 18:46:00,
2013-04-14 14:47:00,51.0,29.0,30.06,SE,135,4.0,5.0,45,0.00,,,0.00,TxWx,2013-04-14 18:47:00,
2013-04-14 14:52:00,51.0,29.0,30.06,ENE,67,4.0,5.0,45,0.00,,,0.00,TxWx,2013-04-14 18:52:00,
2013-04-14 14:57:00,51.0,29.0,30.06,SE,135,13.0,15.0,45,0.00,,,0.00,TxWx,2013-04-14 18:57:00,
2013-04-14 15:02:00,51.0,29.0,30.06,SSE,157,9.0,10.0,45,0.00,,,0.00,TxWx,2013-04-14 19:02:00,
2013-04-14 15:08:00,51.0,29.0,30.06,East,90,3.0,3.0,45,0.00,,,0.00,TxWx,2013-04-14 19:08:00,
2013-04-14 15:13:00,51.0,29.0,30.06,ESE,112,6.0,11.0,45,0.00,,,0.00,TxWx,2013-04-14 19:13:00,
2013-04-14 15:18:00,51.0,29.0,30.06,ESE,112,8.0,8.0,45,0.00,,,0.00,TxWx,2013-04-14 19:18:00,
2013-04-14 15:24:00,51.0,28.0,30.06,SE,135,4.0,5.0,43,0.00,,,0.00,TxWx,2013-04-14 19:24:00,
2013-04-14 15:26:00,39.0,29.0,30.19,ESE,112,0.0,0.0,71,0.00,,,0.00,TxWx,2013-04-14 19:26:00,
2013-04-14 15:27:00,39.0,29.0,30.19,ESE,112,0.0,0.0,71,0.00,,,0.00,TxWx,2013-04-14 19:27:00,
2013-04-14 15:28:00,39.0,29.0,30.19,ESE,112,0.0,1.0,71,0.00,,,0.00,TxWx,2013-04-14 19:28:00,
2013-04-14 15:29:00,52.0,29.0,30.06,East,90,12.0,12.0,42,0.00,,,0.00,TxWx,2013-04-14 19:29:00,
2013-04-14 15:32:00,39.0,29.0,30.19,South,180,0.0,0.0,70,0.00,,,0.00,TxWx,2013-04-14 19:32:00,
2013-04-14 15:34:00,51.0,27.0,30.06,East,90,16.0,21.0,41,0.00,,,0.00,TxWx,2013-04-14 19:34:00,
2013-04-14 15:37:00,38.0,28.0,30.19,SE,135,1.0,1.0,70,0.00,,,0.00,TxWx,2013-04-14 19:37:00,
2013-04-14 15:39:00,51.0,27.0,30.06,ESE,112,6.0,6.0,41,0.00,,,0.00,TxWx,2013-04-14 19:39:00,
2013-04-14 15:44:00,52.0,27.0,30.05,SE,135,14.0,14.0,40,0.00,,,0.00,TxWx,2013-04-14 19:44:00,
2013-04-14 15:49:00,52.0,28.0,30.05,East,90,9.0,13.0,41,0.00,,,0.00,TxWx,2013-04-14 19:49:00,
2013-04-14 15:55:00,52.0,28.0,30.05,East,90,10.0,10.0,41,0.00,,,0.00,TxWx,2013-04-14 19:55:00,
2013-04-14 16:00:00,51.0,27.0,30.05,SSE,157,13.0,18.0,41,0.00,,,0.00,TxWx,2013-04-14 20:00:00,
2013-04-14 16:05:00,51.0,27.0,30.06,ESE,112,13.0,14.0,42,0.00,,,0.00,TxWx,2013-04-14 20:05:00,
2013-04-14 16:10:00,51.0,28.0,30.06,SE,135,7.0,10.0,42,0.00,,,0.00,TxWx,2013-04-14 20:10:00,
2013-04-14 16:15:00,51.0,28.0,30.06,ESE,112,10.0,14.0,42,0.00,,,0.00,TxWx,2013-04-14 20:15:00,
2013-04-14 16:21:00,51.0,28.0,30.07,SE,135,6.0,9.0,43,0.00,,,0.00,TxWx,2013-04-14 20:21:00,
2013-04-14 16:26:00,51.0,28.0,30.07,SE,135,4.0,6.0,43,0.00,,,0.00,TxWx,2013-04-14 20:26:00,
2013-04-14 16:31:00,51.0,28.0,30.07,East,90,6.0,8.0,43,0.00,,,0.00,TxWx,2013-04-14 20:31:00,
2013-04-14 16:36:00,51.0,28.0,30.07,SE,135,6.0,10.0,42,0.00,,,0.00,TxWx,2013-04-14 20:36:00,
2013-04-14 16:41:00,51.0,28.0,30.08,ENE,67,11.0,11.0,43,0.00,,,0.00,TxWx,2013-04-14 20:41:00,
2013-04-14 16:47:00,51.0,28.0,30.08,ESE,112,13.0,13.0,43,0.00,,,0.00,TxWx,2013-04-14 20:47:00,
2013-04-14 16:52:00,51.0,28.0,30.08,ESE,112,10.0,11.0,43,0.00,,,0.00,TxWx,2013-04-14 20:52:00,
2013-04-14 16:57:00,51.0,28.0,30.08,NE,45,5.0,8.0,43,0.00,,,0.00,TxWx,2013-04-14 20:57:00,
2013-04-14 17:02:00,51.0,29.0,30.08,ESE,112,8.0,11.0,44,0.00,,,0.00,TxWx,2013-04-14 21:02:00,
2013-04-14 17:08:00,51.0,28.0,30.08,ENE,67,5.0,6.0,42,0.00,,,0.00,TxWx,2013-04-14 21:08:00,
2013-04-14 17:13:00,51.0,28.0,30.08,East,90,5.0,6.0,42,0.00,,,0.00,TxWx,2013-04-14 21:13:00,
2013-04-14 17:18:00,51.0,28.0,30.08,South,180,3.0,3.0,42,0.00,,,0.00,TxWx,2013-04-14 21:18:00,
2013-04-14 17:24:00,51.0,27.0,30.09,ESE,112,7.0,7.0,42,0.00,,,0.00,TxWx,2013-04-14 21:24:00,
2013-04-14 17:29:00,51.0,27.0,30.08,SSE,157,9.0,13.0,42,0.00,,,0.00,TxWx,2013-04-14 21:29:00,
2013-04-14 17:35:00,51.0,28.0,30.08,SSE,157,4.0,9.0,42,0.00,,,0.00,TxWx,2013-04-14 21:35:00,
2013-04-14 17:40:00,51.0,28.0,30.09,SE,135,7.0,8.0,42,0.00,,,0.00,TxWx,2013-04-14 21:40:00,
2013-04-14 17:41:00,34.0,26.0,30.20,East,90,0.0,0.0,76,0.00,,,0.00,TxWx,2013-04-14 21:41:00,
2013-04-14 17:42:00,34.0,26.0,30.20,NE,45,0.0,0.0,77,0.00,,,0.00,TxWx,2013-04-14 21:42:00,
2013-04-14 17:43:00,34.0,26.0,30.20,ENE,67,0.0,0.0,77,0.00,,,0.00,TxWx,2013-04-14 21:43:00,
2013-04-14 17:44:00,34.0,26.0,30.20,NE,45,0.0,0.0,77,0.00,,,0.00,TxWx,2013-04-14 21:44:00,
2013-04-14 17:45:00,51.0,28.0,30.09,SSE,157,10.0,11.0,42,0.00,,,0.00,TxWx,2013-04-14 21:45:00,
2013-04-14 17:46:00,34.0,26.0,30.20,WNW,292,0.0,0.0,77,0.00,,,0.00,TxWx,2013-04-14 21:46:00,
2013-04-14 17:47:00,34.0,26.0,30.20,WNW,292,0.0,0.0,77,0.00,,,0.00,TxWx,2013-04-14 21:47:00,
2013-04-14 17:48:00,34.0,26.0,30.21,NNE,22,0.0,0.0,77,0.00,,,0.00,TxWx,2013-04-14 21:48:00,
2013-04-14 17:49:00,34.0,26.0,30.21,NNE,22,0.0,0.0,77,0.00,,,0.00,TxWx,2013-04-14 21:49:00,
2013-04-14 17:50:00,34.0,26.0,30.21,NNE,22,1.0,1.0,77,0.00,,,0.00,TxWx,2013-04-14 21:50:00,
2013-04-14 17:51:00,51.0,28.0,30.09,East,90,3.0,3.0,42,0.00,,,0.00,TxWx,2013-04-14 21:51:00,
2013-04-14 17:52:00,34.0,27.0,30.21,NNE,22,1.0,1.0,77,0.00,,,0.00,TxWx,2013-04-14 21:52:00,
2013-04-14 17:53:00,34.0,27.0,30.21,NNE,22,1.0,1.0,77,0.00,,,0.00,TxWx,2013-04-14 21:53:00,
2013-04-14 17:54:00,34.0,27.0,30.21,NNE,22,1.0,1.0,77,0.00,,,0.00,TxWx,2013-04-14 21:54:00,
2013-04-14 17:55:00,34.0,27.0,30.21,North,0,0.0,1.0,77,0.00,,,0.00,TxWx,2013-04-14 21:55:00,
2013-04-14 17:56:00,51.0,28.0,30.09,ENE,67,8.0,9.0,42,0.00,,,0.00,TxWx,2013-04-14 21:56:00,
2013-04-14 17:57:00,34.0,27.0,30.21,NNE,22,1.0,1.0,77,0.00,,,0.00,TxWx,2013-04-14 21:57:00,
2013-04-14 17:58:00,34.0,27.0,30.21,NNE,22,0.0,1.0,77,0.00,,,0.00,TxWx,2013-04-14 21:58:00,
2013-04-14 17:59:00,34.0,27.0,30.21,NNE,22,1.0,1.0,77,0.00,,,0.00,TxWx,2013-04-14 21:59:00,
2013-04-14 18:00:00,34.0,27.0,30.21,NNE,22,1.0,1.0,77,0.00,,,0.00,TxWx,2013-04-14 22:00:00,
2013-04-14 18:01:00,51.0,27.0,30.09,SE,135,6.0,8.0,42,0.00,,,0.00,TxWx,2013-04-14 22:01:00,
2013-04-14 18:02:00,34.0,27.0,30.21,NNE,22,0.0,1.0,78,0.00,,,0.00,TxWx,2013-04-14 22:02:00,
2013-04-14 18:03:00,34.0,27.0,30.21,North,0,0.0,0.0,78,0.00,,,0.00,TxWx,2013-04-14 22:03:00,
2013-04-14 18:04:00,34.0,27.0,30.21,North,0,0.0,0.0,78,0.00,,,0.00,TxWx,2013-04-14 22:04:00,
2013-04-14 18:05:00,34.0,27.0,30.21,North,0,0.0,0.0,78,0.00,,,0.00,TxWx,2013-04-14 22:05:00,
2013-04-14 18:06:00,51.0,27.0,30.09,ENE,67,6.0,8.0,42,0.00,,,0.00,TxWx,2013-04-14 22:06:00,
2013-04-14 18:07:00,34.0,27.0,30.21,NNW,337,1.0,1.0,78,0.00,,,0.00,TxWx,2013-04-14 22:07:00,
2013-04-14 18:08:00,34.0,27.0,30.21,NNW,337,1.0,2.0,78,0.00,,,0.00,TxWx,2013-04-14 22:08:00,
2013-04-14 18:09:00,34.0,27.0,30.21,NNW,337,1.0,2.0,78,0.00,,,0.00,TxWx,2013-04-14 22:09:00,
2013-04-14 18:10:00,34.0,27.0,30.21,NNW,337,1.0,1.0,78,0.00,,,0.00,TxWx,2013-04-14 22:10:00,
2013-04-14 18:11:00,51.0,28.0,30.09,East,90,5.0,8.0,42,0.00,,,0.00,TxWx,2013-04-14 22:11:00,
2013-04-14 18:12:00,34.0,27.0,30.21,NNW,337,0.0,0.0,78,0.00,,,0.00,TxWx,2013-04-14 22:12:00,
2013-04-14 18:13:00,34.0,27.0,30.21,North,0,0.0,0.0,78,0.00,,,0.00,TxWx,2013-04-14 22:13:00,
2013-04-14 18:14:00,34.0,27.0,30.21,NNE,22,0.0,0.0,78,0.00,,,0.00,TxWx,2013-04-14 22:14:00,
2013-04-14 18:15:00,34.0,27.0,30.21,SSE,157,0.0,0.0,78,0.00,,,0.00,TxWx,2013-04-14 22:15:00,
2013-04-14 18:16:00,34.0,27.0,30.21,SSW,202,1.0,1.0,78,0.00,,,0.00,TxWx,2013-04-14 22:16:00,
2013-04-14 18:17:00,51.0,27.0,30.09,East,90,10.0,13.0,42,0.00,,,0.00,TxWx,2013-04-14 22:17:00,
2013-04-14 18:18:00,34.0,27.0,30.21,West,270,0.0,0.0,78,0.00,,,0.00,TxWx,2013-04-14 22:18:00,
2013-04-14 18:19:00,34.0,27.0,30.21,West,270,0.0,0.0,78,0.00,,,0.00,TxWx,2013-04-14 22:19:00,
2013-04-14 18:20:00,34.0,27.0,30.21,West,270,0.0,0.0,78,0.00,,,0.00,TxWx,2013-04-14 22:20:00,
2013-04-14 18:21:00,34.0,27.0,30.21,West,270,0.0,0.0,78,0.00,,,0.00,TxWx,2013-04-14 22:21:00,
2013-04-14 18:22:00,51.0,27.0,30.09,SSE,157,5.0,10.0,41,0.00,,,0.00,TxWx,2013-04-14 22:22:00,
2013-04-14 18:23:00,34.0,27.0,30.21,West,270,0.0,0.0,78,0.00,,,0.00,TxWx,2013-04-14 22:23:00,
2013-04-14 18:24:00,34.0,27.0,30.21,ENE,67,0.0,0.0,78,0.00,,,0.00,TxWx,2013-04-14 22:24:00,
2013-04-14 18:27:00,51.0,27.0,30.09,East,90,8.0,8.0,41,0.00,,,0.00,TxWx,2013-04-14 22:27:00,
2013-04-14 18:32:00,51.0,27.0,30.09,SE,135,9.0,9.0,41,0.00,,,0.00,TxWx,2013-04-14 22:32:00,
2013-04-14 18:37:00,51.0,27.0,30.10,SSE,157,3.0,4.0,41,0.00,,,0.00,TxWx,2013-04-14 22:37:00,
2013-04-14 18:39:00,34.0,27.0,30.22,North,0,0.0,0.0,79,0.00,,,0.00,TxWx,2013-04-14 22:39:00,
2013-04-14 18:40:00,34.0,27.0,30.22,NNW,337,0.0,0.0,79,0.00,,,0.00,TxWx,2013-04-14 22:40:00,
2013-04-14 18:41:00,34.0,27.0,30.22,NNW,337,0.0,0.0,79,0.00,,,0.00,TxWx,2013-04-14 22:41:00,
2013-04-14 18:42:00,51.0,27.0,30.10,East,90,8.0,10.0,41,0.00,,,0.00,TxWx,2013-04-14 22:42:00,
2013-04-14 18:43:00,34.0,27.0,30.22,North,0,1.0,1.0,79,0.00,,,0.00,TxWx,2013-04-14 22:43:00,
2013-04-14 18:44:00,34.0,27.0,30.22,NNW,337,1.0,1.0,79,0.00,,,0.00,TxWx,2013-04-14 22:44:00,
2013-04-14 18:45:00,34.0,27.0,30.22,NNW,337,0.0,1.0,79,0.00,,,0.00,TxWx,2013-04-14 22:45:00,
2013-04-14 18:46:00,34.0,27.0,30.22,NW,315,0.0,0.0,79,0.00,,,0.00,TxWx,2013-04-14 22:46:00,
2013-04-14 18:47:00,34.0,27.0,30.22,WNW,292,0.0,0.0,79,0.00,,,0.00,TxWx,2013-04-14 22:47:00,
2013-04-14 18:48:00,51.0,27.0,30.10,SSE,157,8.0,10.0,41,0.00,,,0.00,TxWx,2013-04-14 22:48:00,
2013-04-14 18:49:00,34.0,27.0,30.22,WSW,247,0.0,1.0,79,0.00,,,0.00,TxWx,2013-04-14 22:49:00,
2013-04-14 18:50:00,34.0,27.0,30.22,SSW,202,1.0,1.0,79,0.00,,,0.00,TxWx,2013-04-14 22:50:00,
2013-04-14 18:51:00,34.0,27.0,30.22,SSW,202,2.0,2.0,80,0.00,,,0.00,TxWx,2013-04-14 22:51:00,
2013-04-14 18:52:00,34.0,27.0,30.22,SSW,202,1.0,2.0,80,0.00,,,0.00,TxWx,2013-04-14 22:52:00,
2013-04-14 18:53:00,51.0,27.0,30.10,SSE,157,5.0,8.0,41,0.00,,,0.00,TxWx,2013-04-14 22:53:00,
2013-04-14 18:54:00,35.0,28.0,30.22,SSW,202,0.0,1.0,80,0.00,,,0.00,TxWx,2013-04-14 22:54:00,
2013-04-14 18:55:00,35.0,28.0,30.22,SSE,157,0.0,0.0,80,0.00,,,0.00,TxWx,2013-04-14 22:55:00,
2013-04-14 18:56:00,35.0,28.0,30.22,ENE,67,0.0,0.0,80,0.00,,,0.00,TxWx,2013-04-14 22:56:00,
2013-04-14 18:57:00,35.0,28.0,30.22,ENE,67,0.0,0.0,80,0.00,,,0.00,TxWx,2013-04-14 22:57:00,
2013-04-14 18:58:00,51.0,27.0,30.10,SE,135,8.0,11.0,41,0.00,,,0.00,TxWx,2013-04-14 22:58:00,
2013-04-14 18:59:00,35.0,28.0,30.22,SE,135,0.0,0.0,80,0.00,,,0.00,TxWx,2013-04-14 22:59:00,
2013-04-14 19:00:00,35.0,28.0,30.22,ESE,112,0.0,0.0,80,0.00,,,0.00,TxWx,2013-04-14 23:00:00,
2013-04-14 19:01:00,35.0,28.0,30.22,NNE,22,0.0,0.0,80,0.00,,,0.00,TxWx,2013-04-14 23:01:00,
2013-04-14 19:03:00,51.0,27.0,30.10,SE,135,5.0,10.0,41,0.00,,,0.00,TxWx,2013-04-14 23:03:00,
2013-04-14 19:04:00,34.0,27.0,30.22,NNW,337,0.0,1.0,80,0.00,,,0.00,TxWx,2013-04-14 23:04:00,
2013-04-14 19:06:00,34.0,27.0,30.23,North,0,1.0,1.0,80,0.00,,,0.00,TxWx,2013-04-14 23:06:00,
2013-04-14 19:07:00,34.0,27.0,30.23,North,0,0.0,1.0,80,0.00,,,0.00,TxWx,2013-04-14 23:07:00,
2013-04-14 19:08:00,51.0,27.0,30.10,SSE,157,7.0,7.0,41,0.00,,,0.00,TxWx,2013-04-14 23:08:00,
2013-04-14 19:09:00,34.0,27.0,30.23,NNW,337,1.0,1.0,80,0.00,,,0.00,TxWx,2013-04-14 23:09:00,
2013-04-14 19:10:00,34.0,27.0,30.23,NNW,337,1.0,1.0,80,0.00,,,0.00,TxWx,2013-04-14 23:10:00,
2013-04-14 19:11:00,34.0,27.0,30.23,NNW,337,1.0,1.0,80,0.00,,,0.00,TxWx,2013-04-14 23:11:00,
2013-04-14 19:14:00,50.0,28.0,30.11,South,180,9.0,11.0,44,0.00,,,0.00,TxWx,2013-04-14 23:14:00,
2013-04-14 19:16:00,34.0,28.0,30.23,NW,315,1.0,1.0,81,0.00,,,0.00,TxWx,2013-04-14 23:16:00,
2013-04-14 19:17:00,34.0,28.0,30.23,WNW,292,0.0,1.0,81,0.00,,,0.00,TxWx,2013-04-14 23:17:00,
2013-04-14 19:18:00,34.0,28.0,30.24,NW,315,0.0,1.0,81,0.00,,,0.00,TxWx,2013-04-14 23:18:00,
2013-04-14 19:19:00,50.0,28.0,30.11,SSW,202,4.0,5.0,45,0.00,,,0.00,TxWx,2013-04-14 23:19:00,
2013-04-14 19:20:00,34.0,28.0,30.24,NNW,337,1.0,1.0,81,0.00,,,0.00,TxWx,2013-04-14 23:20:00,
2013-04-14 19:21:00,34.0,28.0,30.24,NNW,337,1.0,1.0,81,0.00,,,0.00,TxWx,2013-04-14 23:21:00,
2013-04-14 19:22:00,34.0,28.0,30.24,WNW,292,0.0,1.0,81,0.00,,,0.00,TxWx,2013-04-14 23:22:00,
2013-04-14 19:23:00,34.0,28.0,30.24,WNW,292,0.0,0.0,81,0.00,,,0.00,TxWx,2013-04-14 23:23:00,
2013-04-14 19:24:00,49.0,28.0,30.11,SSE,157,4.0,5.0,46,0.00,,,0.00,TxWx,2013-04-14 23:24:00,
2013-04-14 19:29:00,49.0,28.0,30.11,West,270,3.0,4.0,46,0.00,,,0.00,TxWx,2013-04-14 23:29:00,
2013-04-14 19:32:00,34.0,29.0,30.25,NNE,22,1.0,1.0,81,0.00,,,0.00,TxWx,2013-04-14 23:32:00,
2013-04-14 19:34:00,34.0,28.0,30.25,NNE,22,1.0,1.0,81,0.00,,,0.00,TxWx,2013-04-14 23:34:00,
2013-04-14 19:35:00,49.0,28.0,30.12,SW,225,6.0,6.0,47,0.00,,,0.00,TxWx,2013-04-14 23:35:00,
2013-04-14 19:38:00,35.0,29.0,30.25,NNW,337,1.0,2.0,81,0.00,,,0.00,TxWx,2013-04-14 23:38:00,
2013-04-14 19:39:00,35.0,29.0,30.25,WNW,292,1.0,1.0,81,0.00,,,0.00,TxWx,2013-04-14 23:39:00,
2013-04-14 19:40:00,49.0,28.0,30.12,South,180,7.0,8.0,47,0.00,,,0.00,TxWx,2013-04-14 23:40:00,
2013-04-14 19:41:00,35.0,29.0,30.25,NNW,337,1.0,1.0,81,0.00,,,0.00,TxWx,2013-04-14 23:41:00,
2013-04-14 19:44:00,35.0,29.0,30.26,North,0,1.0,1.0,81,0.00,,,0.00,TxWx,2013-04-14 23:44:00,
2013-04-14 19:45:00,49.0,29.0,30.13,SE,135,4.0,5.0,47,0.00,,,0.00,TxWx,2013-04-14 23:45:00,
2013-04-14 19:49:00,35.0,29.0,30.26,NE,45,1.0,1.0,82,0.00,,,0.00,TxWx,2013-04-14 23:49:00,
2013-04-14 19:50:00,49.0,29.0,30.12,SSW,202,5.0,5.0,48,0.00,,,0.00,TxWx,2013-04-14 23:50:00,
2013-04-14 19:55:00,49.0,29.0,30.13,SSE,157,3.0,5.0,48,0.00,,,0.00,TxWx,2013-04-14 23:55:00,
2013-04-14 19:56:00,35.0,29.0,30.26,WNW,292,0.0,0.0,82,0.00,,,0.00,TxWx,2013-04-14 23:56:00,
2013-04-14 19:57:00,35.0,29.0,30.26,South,180,0.0,0.0,82,0.00,,,0.00,TxWx,2013-04-14 23:57:00,
2013-04-14 19:59:00,35.0,29.0,30.26,NNE,22,0.0,0.0,82,0.00,,,0.00,TxWx,2013-04-14 23:59:00,
2013-04-14 20:00:00,48.0,28.0,30.13,South,180,3.0,4.0,48,0.00,,,0.00,TxWx,2013-04-15 00:00:00,
2013-04-14 20:06:00,48.0,28.0,30.13,South,180,4.0,5.0,48,0.00,,,0.00,TxWx,2013-04-15 00:06:00,
2013-04-14 20:11:00,48.0,28.0,30.14,South,180,3.0,3.0,49,0.00,,,0.00,TxWx,2013-04-15 00:11:00,
2013-04-14 20:16:00,48.0,29.0,30.14,SE,135,2.0,3.0,50,0.00,,,0.00,TxWx,2013-04-15 00:16:00,
2013-04-14 20:22:00,47.0,29.0,30.14,South,180,4.0,4.0,51,0.00,,,0.00,TxWx,2013-04-15 00:22:00,
2013-04-14 20:27:00,47.0,29.0,30.15,South,180,4.0,4.0,51,0.00,,,0.00,TxWx,2013-04-15 00:27:00,
2013-04-14 20:33:00,47.0,29.0,30.15,SSE,157,3.0,4.0,51,0.00,,,0.00,TxWx,2013-04-15 00:33:00,
2013-04-14 20:38:00,47.0,28.0,30.15,South,180,5.0,6.0,50,0.00,,,0.00,TxWx,2013-04-15 00:38:00,
2013-04-14 20:43:00,47.0,28.0,30.15,SE,135,3.0,5.0,50,0.00,,,0.00,TxWx,2013-04-15 00:43:00,
2013-04-14 20:48:00,47.0,28.0,30.15,SW,225,3.0,4.0,50,0.00,,,0.00,TxWx,2013-04-15 00:48:00,
2013-04-14 20:54:00,47.0,28.0,30.15,South,180,7.0,7.0,50,0.00,,,0.00,TxWx,2013-04-15 00:54:00,
2013-04-14 20:59:00,47.0,28.0,30.15,South,180,4.0,5.0,50,0.00,,,0.00,TxWx,2013-04-15 00:59:00,
2013-04-14 21:04:00,47.0,28.0,30.16,SE,135,3.0,3.0,50,0.00,,,0.00,TxWx,2013-04-15 01:04:00,
2013-04-14 21:10:00,47.0,28.0,30.16,SSE,157,3.0,3.0,50,0.00,,,0.00,TxWx,2013-04-15 01:10:00,
2013-04-14 21:15:00,47.0,29.0,30.16,South,180,2.0,3.0,51,0.00,,,0.00,TxWx,2013-04-15 01:15:00,
2013-04-14 21:20:00,46.0,28.0,30.16,ESE,112,0.0,1.0,52,0.00,,,0.00,TxWx,2013-04-15 01:20:00,
2013-04-14 21:25:00,46.0,29.0,30.16,NE,45,1.0,1.0,53,0.00,,,0.00,TxWx,2013-04-15 01:25:00,
2013-04-14 21:31:00,45.0,28.0,30.16,South,180,0.0,1.0,53,0.00,,,0.00,TxWx,2013-04-15 01:31:00,
2013-04-14 21:36:00,44.0,27.0,30.16,SSE,157,0.0,1.0,54,0.00,,,0.00,TxWx,2013-04-15 01:36:00,
2013-04-14 21:41:00,44.0,28.0,30.16,SSE,157,1.0,2.0,55,0.00,,,0.00,TxWx,2013-04-15 01:41:00,
2013-04-14 21:46:00,43.0,27.0,30.17,ENE,67,1.0,1.0,56,0.00,,,0.00,TxWx,2013-04-15 01:46:00,
2013-04-14 21:52:00,42.0,27.0,30.17,NNE,22,1.0,1.0,57,0.00,,,0.00,TxWx,2013-04-15 01:52:00,
2013-04-14 21:57:00,42.0,27.0,30.17,North,0,1.0,2.0,58,0.00,,,0.00,TxWx,2013-04-15 01:57:00,
2013-04-14 22:02:00,41.0,26.0,30.17,NNE,22,1.0,1.0,58,0.00,,,0.00,TxWx,2013-04-15 02:02:00,
2013-04-14 22:07:00,41.0,27.0,30.17,NE,45,3.0,3.0,59,0.00,,,0.00,TxWx,2013-04-15 02:07:00,
2013-04-14 22:12:00,41.0,27.0,30.17,NNE,22,2.0,2.0,61,0.00,,,0.00,TxWx,2013-04-15 02:12:00,
2013-04-14 22:18:00,41.0,27.0,30.17,North,0,1.0,1.0,61,0.00,,,0.00,TxWx,2013-04-15 02:18:00,
2013-04-14 22:23:00,40.0,27.0,30.17,NE,45,1.0,1.0,61,0.00,,,0.00,TxWx,2013-04-15 02:23:00,
2013-04-14 22:28:00,40.0,27.0,30.17,NNE,22,0.0,0.0,62,0.00,,,0.00,TxWx,2013-04-15 02:28:00,
2013-04-14 22:34:00,40.0,27.0,30.17,NE,45,1.0,1.0,63,0.00,,,0.00,TxWx,2013-04-15 02:34:00,
2013-04-14 22:39:00,40.0,27.0,30.17,ENE,67,1.0,1.0,63,0.00,,,0.00,TxWx,2013-04-15 02:39:00,
2013-04-14 22:44:00,40.0,27.0,30.18,SE,135,0.0,0.0,63,0.00,,,0.00,TxWx,2013-04-15 02:44:00,
2013-04-14 22:49:00,40.0,28.0,30.18,ESE,112,2.0,2.0,64,0.00,,,0.00,TxWx,2013-04-15 02:49:00,
2013-04-14 22:54:00,41.0,29.0,30.18,SE,135,1.0,1.0,64,0.00,,,0.00,TxWx,2013-04-15 02:54:00,
2013-04-14 22:59:00,40.0,27.0,30.18,South,180,1.0,2.0,63,0.00,,,0.00,TxWx,2013-04-15 02:59:00,
2013-04-14 23:05:00,40.0,28.0,30.18,SSW,202,2.0,3.0,65,0.00,,,0.00,TxWx,2013-04-15 03:05:00,
2013-04-14 23:10:00,41.0,29.0,30.18,SSW,202,1.0,2.0,65,0.00,,,0.00,TxWx,2013-04-15 03:10:00,
2013-04-14 23:16:00,41.0,29.0,30.18,South,180,0.0,1.0,65,0.00,,,0.00,TxWx,2013-04-15 03:16:00,
2013-04-14 23:21:00,40.0,28.0,30.18,SSE,157,0.0,1.0,65,0.00,,,0.00,TxWx,2013-04-15 03:21:00,
2013-04-14 23:26:00,40.0,28.0,30.18,SSE,157,0.0,1.0,65,0.00,,,0.00,TxWx,2013-04-15 03:26:00,
2013-04-14 23:31:00,40.0,28.0,30.18,ENE,67,0.0,0.0,66,0.00,,,0.00,TxWx,2013-04-15 03:31:00,
2013-04-14 23:37:00,39.0,28.0,30.18,SE,135,0.0,0.0,66,0.00,,,0.00,TxWx,2013-04-15 03:37:00,
2013-04-14 23:42:00,39.0,28.0,30.18,South,180,1.0,1.0,66,0.00,,,0.00,TxWx,2013-04-15 03:42:00,
2013-04-14 23:47:00,39.0,28.0,30.17,SW,225,2.0,2.0,67,0.00,,,0.00,TxWx,2013-04-15 03:47:00,
2013-04-14 23:53:00,39.0,28.0,30.17,East,90,0.0,1.0,68,0.00,,,0.00,TxWx,2013-04-15 03:53:00,
2013-04-14 23:59:00,39.0,28.0,30.18,NNE,22,1.0,1.0,68,0.00,,,0.00,TxWx,2013-04-15 03:59:00,